sensor_id;sensor_type;location;lat;lon;timestamp;pressure;altitude;pressure_sealevel;temperature;humidity
27980;BME280;15315;50.836;4.430;2023-03-25T00:01:56;99866.97;;;11.54;100.00
27980;BME280;15315;50.836;4.430;2023-03-25T00:11:56;99868.41;;;11.88;100.00
27980;BME280;15315;50.836;4.430;2023-03-25T00:21:57;99872.16;;;11.46;100.00
27980;BME280;15315;50.836;4.430;2023-03-25T00:31:57;99878.53;;;11.45;100.00
27980;BME280;15315;50.836;4.430;2023-03-25T00:41:58;99896.56;;;11.03;100.00
27980;BME280;15315;50.836;4.430;2023-03-25T00:52:01;99883.59;;;11.38;100.00
27980;BME280;15315;50.836;4.430;2023-03-25T01:02:02;99890.00;;;11.37;100.00
27980;BME280;15315;50.836;4.430;2023-03-25T01:12:02;99865.59;;;11.18;100.00
27980;BME280;15315;50.836;4.430;2023-03-25T01:22:03;99876.47;;;11.28;100.00
27980;BME280;15315;50.836;4.430;2023-03-25T01:32:04;99865.66;;;10.66;100.00
27980;BME280;15315;50.836;4.430;2023-03-25T01:42:05;99878.97;;;10.99;100.00
27980;BME280;15315;50.836;4.430;2023-03-25T01:52:08;99861.78;;;11.00;100.00
27980;BME280;15315;50.836;4.430;2023-03-25T02:02:12;99862.13;;;11.27;100.00
27980;BME280;15315;50.836;4.430;2023-03-25T02:12:16;99872.66;;;10.57;100.00
27980;BME280;15315;50.836;4.430;2023-03-25T02:43:04;99828.91;;;10.85;100.00
27980;BME280;15315;50.836;4.430;2023-03-25T02:53:13;99836.28;;;10.52;100.00
27980;BME280;15315;50.836;4.430;2023-03-25T03:03:16;99833.22;;;10.56;100.00
27980;BME280;15315;50.836;4.430;2023-03-25T03:23:44;99847.88;;;10.63;100.00
27980;BME280;15315;50.836;4.430;2023-03-25T03:43:57;99844.59;;;10.06;100.00
27980;BME280;15315;50.836;4.430;2023-03-25T03:54:06;99831.91;;;9.85;100.00
27980;BME280;15315;50.836;4.430;2023-03-25T04:04:08;99855.19;;;9.86;100.00
27980;BME280;15315;50.836;4.430;2023-03-25T04:14:10;99838.22;;;10.61;100.00
27980;BME280;15315;50.836;4.430;2023-03-25T04:24:12;99837.34;;;10.92;100.00
27980;BME280;15315;50.836;4.430;2023-03-25T04:34:15;99865.59;;;9.58;100.00
27980;BME280;15315;50.836;4.430;2023-03-25T04:44:16;99867.72;;;10.19;100.00
27980;BME280;15315;50.836;4.430;2023-03-25T04:54:17;99866.19;;;11.01;100.00
27980;BME280;15315;50.836;4.430;2023-03-25T05:04:18;99873.16;;;11.03;100.00
27980;BME280;15315;50.836;4.430;2023-03-25T05:14:20;99869.06;;;10.68;100.00
27980;BME280;15315;50.836;4.430;2023-03-25T05:24:21;99893.53;;;10.76;100.00
27980;BME280;15315;50.836;4.430;2023-03-25T05:34:21;99893.31;;;10.99;100.00
27980;BME280;15315;50.836;4.430;2023-03-25T05:44:24;99910.41;;;11.30;100.00
27980;BME280;15315;50.836;4.430;2023-03-25T05:54:25;99915.59;;;11.01;100.00
27980;BME280;15315;50.836;4.430;2023-03-25T06:04:27;99912.84;;;10.92;100.00
27980;BME280;15315;50.836;4.430;2023-03-25T06:14:27;99915.38;;;9.63;100.00
27980;BME280;15315;50.836;4.430;2023-03-25T06:24:28;99936.88;;;10.84;100.00
27980;BME280;15315;50.836;4.430;2023-03-25T06:34:28;99932.34;;;10.41;100.00
27980;BME280;15315;50.836;4.430;2023-03-25T06:44:31;99941.53;;;10.28;100.00
27980;BME280;15315;50.836;4.430;2023-03-25T06:54:32;99959.78;;;11.10;100.00
27980;BME280;15315;50.836;4.430;2023-03-25T07:04:32;99958.34;;;10.74;100.00
27980;BME280;15315;50.836;4.430;2023-03-25T07:14:33;99961.75;;;11.81;100.00
27980;BME280;15315;50.836;4.430;2023-03-25T07:24:33;99962.59;;;11.82;100.00
27980;BME280;15315;50.836;4.430;2023-03-25T07:34:33;99973.00;;;11.86;100.00
27980;BME280;15315;50.836;4.430;2023-03-25T07:44:34;99980.53;;;11.83;100.00
27980;BME280;15315;50.836;4.430;2023-03-25T07:54:35;100010.13;;;12.14;100.00
27980;BME280;15315;50.836;4.430;2023-03-25T08:04:36;99993.31;;;12.11;100.00
27980;BME280;15315;50.836;4.430;2023-03-25T08:14:36;100004.28;;;12.09;100.00
27980;BME280;15315;50.836;4.430;2023-03-25T08:24:36;100018.03;;;12.36;100.00
27980;BME280;15315;50.836;4.430;2023-03-25T08:34:37;100023.84;;;12.62;100.00
27980;BME280;15315;50.836;4.430;2023-03-25T08:44:40;100044.63;;;12.31;100.00
27980;BME280;15315;50.836;4.430;2023-03-25T08:54:40;100034.16;;;12.97;100.00
27980;BME280;15315;50.836;4.430;2023-03-25T09:04:42;100033.22;;;14.31;100.00
27980;BME280;15315;50.836;4.430;2023-03-25T09:14:42;100047.88;;;13.05;100.00
27980;BME280;15315;50.836;4.430;2023-03-25T09:24:44;100050.25;;;12.89;100.00
27980;BME280;15315;50.836;4.430;2023-03-25T09:34:44;100048.47;;;12.69;100.00
27980;BME280;15315;50.836;4.430;2023-03-25T09:55:05;100051.63;;;13.62;100.00
27980;BME280;15315;50.836;4.430;2023-03-25T10:05:30;100064.69;;;13.18;100.00
27980;BME280;15315;50.836;4.430;2023-03-25T10:15:58;100068.66;;;14.19;100.00
27980;BME280;15315;50.836;4.430;2023-03-25T10:26:02;100048.97;;;14.91;100.00
27980;BME280;15315;50.836;4.430;2023-03-25T10:36:06;100072.88;;;14.41;97.95
27980;BME280;15315;50.836;4.430;2023-03-25T10:46:34;100053.28;;;14.57;88.04
27980;BME280;15315;50.836;4.430;2023-03-25T10:56:48;100078.19;;;14.33;91.81
27980;BME280;15315;50.836;4.430;2023-03-25T11:06:55;100061.88;;;13.58;91.05
27980;BME280;15315;50.836;4.430;2023-03-25T11:17:00;100064.69;;;15.15;87.84
27980;BME280;15315;50.836;4.430;2023-03-25T11:27:06;100065.34;;;14.26;96.33
27980;BME280;15315;50.836;4.430;2023-03-25T11:37:16;100051.88;;;14.53;90.35
27980;BME280;15315;50.836;4.430;2023-03-25T11:47:28;100115.66;;;11.60;100.00
27980;BME280;15315;50.836;4.430;2023-03-25T11:57:36;100117.91;;;11.33;100.00
27980;BME280;15315;50.836;4.430;2023-03-25T12:07:46;100157.34;;;10.80;100.00
27980;BME280;15315;50.836;4.430;2023-03-25T12:18:00;100136.09;;;11.95;100.00
27980;BME280;15315;50.836;4.430;2023-03-25T12:48:45;100155.50;;;11.14;100.00
27980;BME280;15315;50.836;4.430;2023-03-25T13:09:28;100145.59;;;11.89;100.00
27980;BME280;15315;50.836;4.430;2023-03-25T13:19:32;100144.81;;;11.66;100.00
27980;BME280;15315;50.836;4.430;2023-03-25T13:30:02;100130.13;;;12.12;100.00
27980;BME280;15315;50.836;4.430;2023-03-25T14:10:48;100129.47;;;12.19;100.00
27980;BME280;15315;50.836;4.430;2023-03-25T14:20:51;100142.88;;;12.30;100.00
27980;BME280;15315;50.836;4.430;2023-03-25T14:41:13;100141.25;;;12.39;100.00
27980;BME280;15315;50.836;4.430;2023-03-25T14:51:16;100166.88;;;12.45;100.00
27980;BME280;15315;50.836;4.430;2023-03-25T15:01:17;100171.13;;;12.17;100.00
27980;BME280;15315;50.836;4.430;2023-03-25T15:11:55;100182.44;;;12.31;100.00
27980;BME280;15315;50.836;4.430;2023-03-25T16:02:52;100181.53;;;14.11;100.00
27980;BME280;15315;50.836;4.430;2023-03-25T16:12:54;100196.88;;;13.53;100.00
27980;BME280;15315;50.836;4.430;2023-03-25T16:22:56;100202.06;;;14.23;98.21
27980;BME280;15315;50.836;4.430;2023-03-25T16:43:14;100223.31;;;14.37;96.54
27980;BME280;15315;50.836;4.430;2023-03-25T16:53:16;100228.59;;;14.39;99.49
27980;BME280;15315;50.836;4.430;2023-03-25T17:03:36;100235.59;;;14.12;99.03
27980;BME280;15315;50.836;4.430;2023-03-25T17:13:43;100259.16;;;14.21;92.81
27980;BME280;15315;50.836;4.430;2023-03-25T17:23:48;100267.50;;;13.80;94.88
27980;BME280;15315;50.836;4.430;2023-03-25T17:33:58;100285.44;;;13.72;96.17
27980;BME280;15315;50.836;4.430;2023-03-25T17:43:59;100286.22;;;13.53;94.82
27980;BME280;15315;50.836;4.430;2023-03-25T17:54:00;100295.31;;;13.92;91.55
27980;BME280;15315;50.836;4.430;2023-03-25T18:04:01;100326.63;;;13.66;93.13
27980;BME280;15315;50.836;4.430;2023-03-25T18:14:01;100333.31;;;13.41;96.45
27980;BME280;15315;50.836;4.430;2023-03-25T18:24:01;100329.84;;;13.90;94.94
27980;BME280;15315;50.836;4.430;2023-03-25T18:34:02;100349.09;;;13.26;96.48
27980;BME280;15315;50.836;4.430;2023-03-25T18:44:03;100333.91;;;13.65;94.74
27980;BME280;15315;50.836;4.430;2023-03-25T18:54:03;100333.19;;;14.12;92.77
27980;BME280;15315;50.836;4.430;2023-03-25T19:04:03;100328.97;;;13.80;91.11
27980;BME280;15315;50.836;4.430;2023-03-25T19:14:04;100336.06;;;12.79;96.47
27980;BME280;15315;50.836;4.430;2023-03-25T19:24:04;100337.59;;;13.13;94.50
27980;BME280;15315;50.836;4.430;2023-03-25T19:34:05;100336.91;;;13.41;93.75
27980;BME280;15315;50.836;4.430;2023-03-25T19:44:07;100328.66;;;13.22;91.65
27980;BME280;15315;50.836;4.430;2023-03-25T19:54:08;100323.81;;;12.75;94.07
27980;BME280;15315;50.836;4.430;2023-03-25T20:04:12;100333.78;;;13.16;92.20
27980;BME280;15315;50.836;4.430;2023-03-25T20:14:13;100337.19;;;12.76;94.47
27980;BME280;15315;50.836;4.430;2023-03-25T20:24:13;100343.47;;;12.97;91.27
27980;BME280;15315;50.836;4.430;2023-03-25T20:34:13;100340.38;;;12.81;91.98
27980;BME280;15315;50.836;4.430;2023-03-25T20:44:14;100340.38;;;12.81;91.38
27980;BME280;15315;50.836;4.430;2023-03-25T20:54:14;100330.66;;;12.15;94.34
27980;BME280;15315;50.836;4.430;2023-03-25T21:04:16;100322.50;;;13.11;92.15
27980;BME280;15315;50.836;4.430;2023-03-25T21:14:16;100324.81;;;12.94;94.94
27980;BME280;15315;50.836;4.430;2023-03-25T21:24:17;100331.94;;;12.95;95.12
27980;BME280;15315;50.836;4.430;2023-03-25T21:34:20;100338.41;;;12.63;98.78
27980;BME280;15315;50.836;4.430;2023-03-25T21:44:22;100344.59;;;12.74;98.83
27980;BME280;15315;50.836;4.430;2023-03-25T21:54:23;100344.84;;;12.71;99.25
27980;BME280;15315;50.836;4.430;2023-03-25T22:04:23;100341.84;;;12.22;100.00
27980;BME280;15315;50.836;4.430;2023-03-25T22:14:24;100350.41;;;12.70;99.80
27980;BME280;15315;50.836;4.430;2023-03-25T22:24:24;100344.28;;;12.68;100.00
27980;BME280;15315;50.836;4.430;2023-03-25T22:34:24;100335.28;;;12.67;100.00
27980;BME280;15315;50.836;4.430;2023-03-25T22:44:27;100327.84;;;12.49;100.00
27980;BME280;15315;50.836;4.430;2023-03-25T22:54:28;100327.97;;;12.47;100.00
27980;BME280;15315;50.836;4.430;2023-03-25T23:04:28;100327.63;;;12.41;100.00
27980;BME280;15315;50.836;4.430;2023-03-25T23:14:29;100331.09;;;12.43;100.00
27980;BME280;15315;50.836;4.430;2023-03-25T23:24:29;100322.88;;;12.65;100.00
27980;BME280;15315;50.836;4.430;2023-03-25T23:34:33;100311.47;;;12.61;100.00
27980;BME280;15315;50.836;4.430;2023-03-25T23:44:34;100287.78;;;13.25;100.00
27980;BME280;15315;50.836;4.430;2023-03-25T23:54:34;100275.44;;;13.32;100.00
